Time;durP1;ratioP1;P1;durP2;ratioP2;P2;SDS_P1;SDS_P2;PMS_P1;PMS_P2;Temp;Humidity;BMP_temperature;BMP_pressure;BME280_temperature;BME280_humidity;BME280_pressure;Samples;Min_cycle;Max_cycle;Signal;HPM_P1;HPM_P2
2022/04/25 00:00:02;;;;;;;;;22.50;22.00;;;;;15.88;48.42;100162.16;5111627;27;45386;-83
2022/04/25 00:02:29;;;;;;;;;22.75;21.50;;;;;16.06;48.45;100194.88;5111323;27;45407;-84
2022/04/25 00:04:54;;;;;;;;;22.00;21.25;;;;;15.87;48.02;100160.38;5111426;27;45447;-84
2022/04/25 00:07:19;;;;;;;;;23.33;22.67;;;;;15.81;48.25;100151.50;5111774;27;45340;-84
2022/04/25 00:09:45;;;;;;;;;24.75;24.50;;;;;15.93;48.57;100180.72;5110768;27;45397;-84
2022/04/25 00:12:11;;;;;;;;;20.75;20.75;;;;;16.16;48.40;100226.75;5111542;27;45442;-84
2022/04/25 00:14:36;;;;;;;;;23.25;19.25;;;;;15.89;48.23;100187.75;5077692;27;45413;-84
2022/04/25 00:17:02;;;;;;;;;20.75;20.50;;;;;15.46;48.46;100109.81;5071268;27;48301;-84
2022/04/25 00:19:27;;;;;;;;;20.25;19.75;;;;;15.73;48.66;100154.13;5090818;27;45455;-84
2022/04/25 00:21:53;;;;;;;;;21.00;20.00;;;;;15.81;48.09;100175.34;5090553;27;45445;-84
2022/04/25 00:24:19;;;;;;;;;21.00;20.50;;;;;15.96;47.97;100199.28;5088786;27;45554;-85
2022/04/25 00:26:44;;;;;;;;;24.75;24.25;;;;;15.67;48.32;100167.38;5090289;27;45735;-84
2022/04/25 00:29:11;;;;;;;;;24.25;23.25;;;;;15.60;48.09;100145.19;5090534;27;45571;-84
2022/04/25 00:31:36;;;;;;;;;20.25;19.50;;;;;15.57;48.55;100149.63;5071671;27;45632;-84
2022/04/25 00:34:01;;;;;;;;;19.00;19.00;;;;;15.81;48.38;100192.16;5090205;27;45512;-84
2022/04/25 00:36:27;;;;;;;;;20.00;19.50;;;;;15.60;48.12;100158.44;5072010;27;48120;-84
2022/04/25 00:38:52;;;;;;;;;21.00;21.00;;;;;15.54;48.45;100139.88;5071203;27;45489;-85
2022/04/25 00:41:17;;;;;;;;;19.00;19.00;;;;;15.70;48.09;100172.66;5090950;27;45479;-84
2022/04/25 00:43:43;;;;;;;;;20.75;19.00;;;;;15.57;48.39;100161.09;5071827;27;45564;-84
2022/04/25 00:46:23;;;;;;;;;20.00;19.75;;;;;15.84;48.28;100201.88;5089268;27;46288;-84
2022/04/25 00:48:48;;;;;;;;;19.00;19.00;;;;;15.74;48.24;100196.53;5099360;27;45903;-84
2022/04/25 00:51:14;;;;;;;;;18.75;18.25;;;;;15.76;48.49;100195.63;5092563;27;45709;-84
2022/04/25 00:53:40;;;;;;;;;17.75;16.75;;;;;15.60;48.39;100165.50;5105475;27;45519;-84
2022/04/25 00:56:08;;;;;;;;;19.00;19.00;;;;;15.13;48.08;100092.91;5071350;27;48127;-84
2022/04/25 00:58:35;;;;;;;;;20.25;19.50;;;;;15.77;48.44;100206.28;5090373;27;45942;-84
2022/04/25 01:01:01;;;;;;;;;23.25;21.75;;;;;15.70;48.67;100199.16;5088132;27;45713;-84
2022/04/25 01:03:26;;;;;;;;;22.75;20.25;;;;;15.46;49.03;100160.13;5071737;27;45438;-85
2022/04/25 01:05:52;;;;;;;;;22.25;21.50;;;;;15.43;48.83;100153.09;5089359;27;45454;-84
2022/04/25 01:08:19;;;;;;;;;25.50;23.25;;;;;15.77;49.09;100219.53;5090229;27;45443;-84
2022/04/25 01:10:44;;;;;;;;;24.25;24.00;;;;;15.80;49.01;100227.47;5089750;27;45541;-84
2022/04/25 01:13:13;;;;;;;;;21.50;20.75;;;;;15.76;49.49;100227.44;5071594;27;45690;-84
2022/04/25 01:15:39;;;;;;;;;22.00;21.25;;;;;15.40;49.47;100171.59;5071048;27;46119;-84
2022/04/25 01:18:05;;;;;;;;;23.50;21.75;;;;;15.32;49.77;100164.47;5071004;27;45543;-82
2022/04/25 01:20:30;;;;;;;;;19.75;18.00;;;;;15.32;49.92;100169.75;5089913;27;45704;-84
2022/04/25 01:28:34;;;;;;;;;23.00;22.00;;;;;15.35;50.32;100183.03;5090029;27;45521;-84
2022/04/25 01:30:59;;;;;;;;;19.50;19.00;;;;;15.41;50.93;100194.53;5088298;27;45624;-84
2022/04/25 01:33:25;;;;;;;;;20.50;19.25;;;;;15.27;50.42;100180.34;5089971;27;45409;-84
2022/04/25 01:35:50;;;;;;;;;25.50;23.25;;;;;14.79;50.58;100109.44;5088876;27;46692;-84
2022/04/25 01:38:15;;;;;;;;;22.50;22.00;;;;;15.07;50.34;100164.31;5089001;27;45826;-84
2022/04/25 01:40:41;;;;;;;;;21.50;21.00;;;;;15.20;50.63;100191.75;5089389;27;45451;-84
2022/04/25 01:43:06;;;;;;;;;23.50;21.50;;;;;15.35;50.72;100220.09;5089704;27;45466;-84
2022/04/25 01:45:31;;;;;;;;;16.75;15.50;;;;;15.09;50.88;100178.47;5087513;27;47043;-85
2022/04/25 01:47:57;;;;;;;;;23.00;22.00;;;;;14.91;50.71;100163.31;5070771;27;45468;-84
2022/04/25 01:50:22;;;;;;;;;25.75;23.50;;;;;15.02;50.57;100179.28;5089851;27;45399;-84
2022/04/25 01:52:47;;;;;;;;;21.25;21.25;;;;;14.63;51.11;100130.50;5070662;27;45245;-84
2022/04/25 01:55:13;;;;;;;;;20.25;19.75;;;;;14.53;50.77;100112.78;5070231;27;47250;-84
2022/04/25 01:57:38;;;;;;;;;21.50;21.25;;;;;14.84;50.66;100176.50;5070889;27;45972;-84
2022/04/25 02:00:05;;;;;;;;;21.00;18.75;;;;;15.19;51.06;100227.06;5092569;27;45417;-84
2022/04/25 02:02:30;;;;;;;;;19.50;19.50;;;;;14.50;51.14;100122.44;5074706;27;45613;-84
2022/04/25 02:04:55;;;;;;;;;20.50;19.25;;;;;15.01;51.06;100211.91;5092569;27;45834;-84
2022/04/25 02:07:21;;;;;;;;;23.75;21.75;;;;;14.83;50.92;100199.44;5074768;27;45483;-84
2022/04/25 02:09:46;;;;;;;;;23.00;22.00;;;;;14.88;50.96;100204.78;5092196;27;45308;-84
2022/04/25 02:12:12;;;;;;;;;21.75;21.25;;;;;15.01;51.11;100238.38;5090982;27;45407;-85
2022/04/25 02:14:40;;;;;;;;;19.50;19.50;;;;;14.57;51.24;100185.94;5092769;27;46317;-84
2022/04/25 02:17:05;;;;;;;;;21.25;19.50;;;;;14.75;50.85;100219.63;5073663;27;45855;-84
2022/04/25 02:19:35;;;;;;;;;18.25;17.75;;;;;14.36;51.25;100156.63;5093127;27;45763;-84
2022/04/25 02:22:00;;;;;;;;;17.75;17.75;;;;;14.50;51.27;100189.44;5074158;27;45528;-84
2022/04/25 02:24:26;;;;;;;;;19.25;18.25;;;;;14.68;51.53;100225.75;5092169;27;46019;-84
2022/04/25 02:26:51;;;;;;;;;21.25;20.25;;;;;14.44;51.22;100178.75;5092228;27;45387;-84
2022/04/25 02:29:20;;;;;;;;;18.00;18.00;;;;;14.75;51.03;100242.56;5086773;27;45589;-83
2022/04/25 02:31:45;;;;;;;;;17.50;17.00;;;;;14.48;51.38;100192.91;5112783;27;45528;-84
2022/04/25 02:34:10;;;;;;;;;22.75;20.75;;;;;14.62;51.28;100229.19;5094642;27;48085;-84
2022/04/25 02:36:36;;;;;;;;;20.50;19.25;;;;;14.18;51.33;100152.03;5094042;27;45597;-84
2022/04/25 02:39:03;;;;;;;;;15.50;15.25;;;;;14.53;51.46;100210.63;5094161;27;45770;-84
2022/04/25 02:41:29;;;;;;;;;25.00;22.75;;;;;14.10;51.22;100151.09;5113353;27;45543;-84
2022/04/25 02:43:54;;;;;;;;;22.00;20.50;;;;;13.97;51.66;100142.13;5093990;27;47459;-84
2022/04/25 02:46:19;;;;;;;;;19.25;18.25;;;;;14.04;51.78;100158.94;5112702;27;45573;-84
2022/04/25 02:48:46;;;;;;;;;21.50;21.00;;;;;14.12;51.72;100176.66;5085793;27;45407;-84
2022/04/25 02:51:14;;;;;;;;;21.00;20.75;;;;;14.42;51.95;100236.00;5092707;27;45431;-84
2022/04/25 02:53:40;;;;;;;;;20.00;19.25;;;;;13.67;52.41;100116.25;5072512;27;48590;-84
2022/04/25 02:56:06;;;;;;;;;23.25;22.25;;;;;14.30;52.21;100233.25;5091823;27;45387;-84
2022/04/25 02:58:32;;;;;;;;;18.50;18.25;;;;;14.24;52.55;100218.22;5092725;27;45536;-84
2022/04/25 03:00:59;;;;;;;;;19.50;19.50;;;;;14.17;52.67;100213.72;5073244;27;45316;-84
2022/04/25 03:03:25;;;;;;;;;20.75;20.00;;;;;14.22;52.50;100226.97;5073912;27;47322;-84
2022/04/25 03:05:52;;;;;;;;;18.25;17.50;;;;;14.13;52.74;100218.06;5090071;27;45390;-84
2022/04/25 03:08:22;;;;;;;;;19.50;19.25;;;;;13.71;52.92;100149.75;5073419;27;45574;-84
2022/04/25 03:10:49;;;;;;;;;25.75;23.25;;;;;13.79;52.64;100163.03;5091639;27;45421;-84
2022/04/25 03:13:16;;;;;;;;;21.00;19.50;;;;;13.71;53.26;100159.44;5090794;27;47432;-84
2022/04/25 03:15:43;;;;;;;;;21.00;20.75;;;;;14.27;52.79;100268.44;5091346;27;45719;-84
2022/04/25 03:18:11;;;;;;;;;19.25;18.00;;;;;14.13;53.21;100252.41;5090519;27;45578;-84
2022/04/25 03:20:37;;;;;;;;;21.50;20.00;;;;;13.62;53.27;100182.22;5091877;27;45457;-84
2022/04/25 03:23:05;;;;;;;;;20.75;18.75;;;;;13.84;53.57;100206.25;5091264;27;45791;-83
2022/04/25 03:25:31;;;;;;;;;21.50;20.00;;;;;14.17;53.57;100267.44;5091437;27;45834;-84
2022/04/25 03:27:57;;;;;;;;;19.25;19.25;;;;;14.17;53.92;100277.13;5091597;27;45631;-84
2022/04/25 03:30:22;;;;;;;;;23.00;21.75;;;;;14.15;53.76;100273.59;5091846;27;45522;-84
2022/04/25 03:32:48;;;;;;;;;24.25;24.00;;;;;13.91;53.83;100242.47;5091301;27;45536;-84
2022/04/25 03:35:17;;;;;;;;;21.67;20.00;;;;;13.69;53.99;100204.28;5072575;27;45410;-84
2022/04/25 03:37:44;;;;;;;;;21.00;20.00;;;;;13.50;54.22;100173.25;5091234;27;45734;-85
2022/04/25 03:40:09;;;;;;;;;21.00;19.75;;;;;13.85;54.20;100242.38;5082335;27;45468;-84
2022/04/25 03:42:39;;;;;;;;;21.25;20.25;;;;;13.73;54.40;100229.88;5093013;27;47235;-83
2022/04/25 03:45:06;;;;;;;;;21.00;20.50;;;;;13.46;54.65;100180.25;5092815;27;46272;-84
2022/04/25 03:47:38;;;;;;;;;24.00;21.50;;;;;13.53;54.41;100202.31;5112034;27;45465;-84
2022/04/25 03:50:07;;;;;;;;;22.00;20.25;;;;;13.63;54.82;100235.91;5094478;27;45571;-83
2022/04/25 03:52:33;;;;;;;;;24.50;23.25;;;;;13.94;54.96;100282.16;5089617;27;48007;-84
2022/04/25 03:57:42;;;;;;;;;23.75;21.50;;;;;13.70;55.01;100248.34;5090868;27;45588;-84
2022/04/25 04:00:08;;;;;;;;;23.25;23.00;;;;;13.49;55.04;100217.22;5091089;27;45354;-84
2022/04/25 04:02:34;;;;;;;;;21.25;20.75;;;;;13.84;55.07;100288.13;5091144;27;45424;-84
2022/04/25 04:05:00;;;;;;;;;21.75;21.00;;;;;13.72;54.86;100265.09;5091035;27;45410;-84
2022/04/25 04:07:26;;;;;;;;;24.50;22.25;;;;;13.74;55.29;100275.66;5072638;27;45444;-84
2022/04/25 04:09:51;;;;;;;;;22.50;21.25;;;;;13.21;55.41;100181.63;5090536;27;45426;-85
2022/04/25 04:12:19;;;;;;;;;24.00;23.00;;;;;13.49;55.57;100226.91;5072686;27;48033;-84
2022/04/25 04:14:45;;;;;;;;;26.25;25.75;;;;;13.88;55.47;100288.22;5071973;27;45893;-84
2022/04/25 04:17:11;;;;;;;;;26.25;23.75;;;;;13.47;55.48;100239.22;5085838;27;45440;-84
2022/04/25 04:19:38;;;;;;;;;22.75;21.50;;;;;13.61;55.81;100266.72;5071021;28;45564;-84
2022/04/25 04:22:04;;;;;;;;;23.00;22.50;;;;;13.48;55.88;100256.81;5069192;28;48130;-84
2022/04/25 04:24:34;;;;;;;;;23.50;22.50;;;;;13.14;56.03;100203.47;5069284;28;46107;-84
2022/04/25 04:27:04;;;;;;;;;25.00;24.00;;;;;13.29;56.08;100234.53;5068679;28;45656;-84
2022/04/25 04:29:31;;;;;;;;;21.75;21.75;;;;;13.48;56.33;100268.25;5070585;27;45583;-84
2022/04/25 04:32:07;;;;;;;;;23.00;23.00;;;;;13.42;56.37;100268.19;5068612;28;46983;-84
2022/04/25 04:34:34;;;;;;;;;23.00;21.50;;;;;13.48;56.46;100277.94;5068932;28;45945;-84
2022/04/25 04:36:59;;;;;;;;;28.00;26.00;;;;;13.47;56.42;100276.16;5069568;28;45502;-84
2022/04/25 04:39:24;;;;;;;;;27.75;25.75;;;;;13.65;56.37;100319.59;5070760;28;45515;-84
2022/04/25 04:41:50;;;;;;;;;23.50;22.75;;;;;13.53;56.57;100292.97;5069443;28;46072;-83
2022/04/25 04:44:15;;;;;;;;;26.00;24.50;;;;;13.43;56.38;100286.66;5068330;27;45320;-84
2022/04/25 04:46:41;;;;;;;;;26.75;25.00;;;;;13.23;56.84;100253.81;5069782;28;45449;-84
2022/04/25 04:49:06;;;;;;;;;27.00;26.00;;;;;13.48;56.86;100307.88;5081781;27;45704;-84
2022/04/25 04:51:32;;;;;;;;;24.75;24.00;;;;;13.10;57.02;100259.69;5090270;27;45937;-84
2022/04/25 04:54:01;;;;;;;;;23.25;19.50;;;;;13.11;57.23;100275.56;5088324;27;45412;-84
2022/04/25 04:56:29;;;;;;;;;24.25;21.75;;;;;13.38;57.51;100325.31;5088874;27;45472;-84
2022/04/25 04:58:54;;;;;;;;;24.00;24.00;;;;;12.99;57.41;100272.72;5088133;27;45505;-84
2022/04/25 05:01:20;;;;;;;;;28.00;25.50;;;;;13.54;57.61;100365.16;5088943;27;47704;-84
2022/04/25 05:03:45;;;;;;;;;31.00;27.50;;;;;13.24;57.30;100302.19;5089957;27;45503;-84
2022/04/25 05:06:11;;;;;;;;;28.00;25.50;;;;;13.32;57.70;100319.03;5088453;27;45640;-84
2022/04/25 05:08:37;;;;;;;;;30.75;27.75;;;;;13.24;57.87;100307.47;5089474;27;45480;-84
2022/04/25 05:11:03;;;;;;;;;31.00;26.00;;;;;13.37;58.10;100330.56;5089647;27;46562;-84
2022/04/25 05:13:31;;;;;;;;;27.00;25.50;;;;;13.55;58.01;100359.03;5090040;27;45424;-83
2022/04/25 05:15:56;;;;;;;;;28.25;24.75;;;;;13.51;57.97;100359.84;5087983;27;45508;-84
2022/04/25 05:18:22;;;;;;;;;32.00;27.25;;;;;13.55;58.47;100361.69;5084988;27;45552;-84
2022/04/25 05:20:47;;;;;;;;;26.50;23.00;;;;;13.42;58.41;100347.38;5084333;27;47546;-84
2022/04/25 05:23:13;;;;;;;;;27.25;27.00;;;;;13.30;57.79;100329.59;5069452;27;45555;-84
2022/04/25 05:25:39;;;;;;;;;32.00;30.00;;;;;13.21;58.20;100337.31;5067643;28;45455;-84
2022/04/25 05:28:05;;;;;;;;;37.50;31.00;;;;;13.15;58.33;100348.66;5069201;27;45697;-83
2022/04/25 05:30:31;;;;;;;;;29.50;26.50;;;;;13.21;58.45;100346.97;5068189;28;48187;-84
2022/04/25 05:32:58;;;;;;;;;29.50;29.00;;;;;12.87;58.50;100291.88;5086015;27;45965;-84
2022/04/25 05:35:29;;;;;;;;;25.75;24.50;;;;;13.40;58.72;100388.72;5088791;27;45746;-84
2022/04/25 05:37:55;;;;;;;;;29.50;26.75;;;;;13.38;58.79;100391.28;5072118;28;45824;-84
2022/04/25 05:40:22;;;;;;;;;34.25;31.50;;;;;13.37;58.90;100384.25;5071446;28;48263;-84
2022/04/25 05:42:50;;;;;;;;;30.75;28.25;;;;;12.96;58.75;100314.88;5088194;27;45729;-84
2022/04/25 05:45:22;;;;;;;;;33.75;31.75;;;;;13.37;58.86;100383.38;5073437;27;45672;-84
2022/04/25 05:47:49;;;;;;;;;40.25;34.25;;;;;13.39;58.87;100392.19;5073339;27;45456;-84
2022/04/25 05:53:01;;;;;;;;;37.00;32.75;;;;;13.20;59.04;100359.28;5092717;27;45540;-84
2022/04/25 05:55:28;;;;;;;;;40.25;35.00;;;;;13.17;58.86;100346.91;5091800;27;45600;-84
2022/04/25 05:57:54;;;;;;;;;39.00;34.75;;;;;12.82;58.75;100293.53;5092544;27;45400;-84
2022/04/25 06:00:19;;;;;;;;;44.75;37.00;;;;;13.36;58.78;100379.84;5093373;27;46531;-84
2022/04/25 06:02:46;;;;;;;;;41.50;36.00;;;;;12.69;58.34;100253.72;5082080;27;45495;-84
2022/04/25 06:05:12;;;;;;;;;39.50;35.25;;;;;13.30;58.29;100352.44;5069214;27;45319;-84
2022/04/25 06:07:42;;;;;;;;;39.75;35.25;;;;;13.47;58.90;100376.50;5072139;28;45478;-84
2022/04/25 06:10:08;;;;;;;;;39.75;35.00;;;;;13.69;58.42;100420.84;5087707;27;48289;-85
2022/04/25 06:12:39;;;;;;;;;38.50;34.75;;;;;13.66;58.35;100404.97;5072195;28;45477;-84
2022/04/25 06:15:05;;;;;;;;;39.50;35.50;;;;;13.40;58.48;100364.94;5071021;28;45457;-84
2022/04/25 06:17:30;;;;;;;;;44.00;36.50;;;;;13.21;58.27;100333.78;5089603;27;45626;-84
2022/04/25 06:19:56;;;;;;;;;43.75;37.25;;;;;13.70;58.50;100435.88;5091148;27;45460;-85
2022/04/25 06:22:21;;;;;;;;;46.00;38.67;;;;;13.37;58.50;100380.72;5093212;27;45389;-83
2022/04/25 06:24:47;;;;;;;;;41.50;37.25;;;;;13.40;58.09;100392.22;5073456;27;45314;-84
2022/04/25 06:27:13;;;;;;;;;44.75;38.50;;;;;13.28;58.65;100370.88;5092450;27;45826;-84
2022/04/25 06:29:42;;;;;;;;;48.00;39.75;;;;;13.58;58.55;100422.44;5092704;27;46519;-83
2022/04/25 06:32:08;;;;;;;;;47.50;39.75;;;;;13.31;58.46;100383.25;5092439;27;45359;-83
2022/04/25 06:34:34;;;;;;;;;48.75;41.75;;;;;13.21;58.18;100379.53;5074112;27;45779;-84
2022/04/25 06:36:59;;;;;;;;;54.25;44.50;;;;;13.11;58.30;100378.47;5073827;27;45424;-83
2022/04/25 06:39:24;;;;;;;;;51.25;42.25;;;;;13.29;58.25;100420.16;5092535;27;46331;-83
2022/04/25 06:41:50;;;;;;;;;50.50;43.25;;;;;13.04;58.42;100379.22;5091838;27;45859;-84
2022/04/25 06:44:15;;;;;;;;;54.00;43.67;;;;;13.31;58.78;100430.78;5091921;27;45465;-84
2022/04/25 06:46:40;;;;;;;;;53.75;44.75;;;;;12.90;58.44;100368.38;5090727;27;45456;-84
2022/04/25 06:49:23;;;;;;;;;53.50;44.25;;;;;13.18;58.65;100419.06;5103178;27;45450;-83
2022/04/25 06:51:56;;;;;;;;;48.50;41.75;;;;;13.22;58.85;100434.13;5094239;27;45887;-83
2022/04/25 06:54:28;;;;;;;;;50.75;43.25;;;;;13.23;58.50;100422.69;5094580;27;45434;-83
2022/04/25 06:56:55;;;;;;;;;52.75;43.50;;;;;13.50;58.72;100463.69;5093403;27;45598;-84
2022/04/25 06:59:22;;;;;;;;;46.25;38.75;;;;;13.25;58.30;100407.78;5094425;27;47418;-83
2022/04/25 07:01:48;;;;;;;;;52.25;42.50;;;;;13.52;58.41;100449.63;5093767;27;46063;-83
2022/04/25 07:04:15;;;;;;;;;49.75;42.00;;;;;13.29;58.12;100419.28;5113060;27;45684;-83
2022/04/25 07:06:41;;;;;;;;;52.00;43.50;;;;;13.13;58.39;100403.13;5112447;27;45472;-83
2022/04/25 07:09:07;;;;;;;;;49.50;41.75;;;;;13.37;58.44;100449.34;5093580;27;46597;-83
2022/04/25 07:11:33;;;;;;;;;52.25;42.25;;;;;13.46;58.51;100451.28;5112352;27;45424;-83
2022/04/25 07:14:02;;;;;;;;;50.25;40.00;;;;;13.22;58.21;100393.66;5112744;27;45770;-83
2022/04/25 07:16:28;;;;;;;;;51.50;43.00;;;;;13.65;57.77;100450.75;5112796;27;45923;-83
2022/04/25 07:18:54;;;;;;;;;53.50;43.50;;;;;13.76;57.76;100458.84;5093124;27;46948;-83
2022/04/25 07:29:32;;;;;;;;;49.25;41.75;;;;;13.97;57.31;100438.06;5112328;27;45511;-83
2022/04/25 07:31:58;;;;;;;;;48.00;40.50;;;;;14.02;57.00;100436.38;5093365;27;45842;-83
2022/04/25 07:34:23;;;;;;;;;51.50;43.50;;;;;14.10;56.97;100428.56;5112222;27;45529;-83
2022/04/25 07:36:51;;;;;;;;;50.67;41.33;;;;;14.23;56.76;100441.09;5111762;27;45356;-83
2022/04/25 07:39:21;;;;;;;;;52.50;43.00;;;;;14.40;56.96;100452.81;5112158;27;45865;-83
2022/04/25 07:41:48;;;;;;;;;50.75;42.75;;;;;14.42;56.38;100453.72;5111458;27;45896;-83
2022/04/25 07:44:14;;;;;;;;;47.50;40.00;;;;;14.66;55.94;100497.28;5093827;27;45481;-84
2022/04/25 07:46:45;;;;;;;;;51.00;41.50;;;;;14.54;56.50;100474.19;5111821;27;45499;-83
2022/04/25 07:49:11;;;;;;;;;53.75;44.75;;;;;14.68;55.64;100490.28;5111588;27;46096;-83
2022/04/25 07:51:37;;;;;;;;;52.25;44.00;;;;;14.57;55.73;100465.41;5111581;27;45394;-83
2022/04/25 07:54:06;;;;;;;;;51.75;43.25;;;;;14.80;55.53;100498.34;5110845;27;45459;-83
2022/04/25 07:56:35;;;;;;;;;56.50;44.50;;;;;14.74;55.67;100481.53;5109863;27;45566;-83
2022/04/25 07:59:00;;;;;;;;;52.25;44.00;;;;;14.19;55.75;100389.06;5111696;27;45456;-84
2022/04/25 08:01:29;;;;;;;;;53.75;44.00;;;;;14.28;55.50;100391.81;5111782;27;45614;-82
2022/04/25 08:03:55;;;;;;;;;51.75;42.50;;;;;14.72;55.43;100449.72;5111476;27;45551;-84
2022/04/25 08:06:24;;;;;;;;;52.75;42.75;;;;;14.59;54.72;100439.88;5112094;27;45380;-84
2022/04/25 08:08:53;;;;;;;;;54.25;44.50;;;;;14.73;55.24;100471.78;5092284;27;47553;-84
2022/04/25 08:11:20;;;;;;;;;52.00;43.25;;;;;14.48;55.13;100457.34;5111450;27;45929;-84
2022/04/25 08:19:16;;;;;;;;;49.50;42.00;;;;;14.26;55.53;100464.06;5111541;27;45422;-83
2022/04/25 08:21:45;;;;;;;;;55.25;46.00;;;;;14.27;55.53;100484.31;5092446;27;45684;-83
2022/04/25 08:24:12;;;;;;;;;56.25;46.25;;;;;14.30;55.80;100498.50;5092690;27;45640;-84
2022/04/25 08:26:37;;;;;;;;;52.25;42.25;;;;;14.09;55.88;100454.13;5091960;27;45578;-84
2022/04/25 08:29:03;;;;;;;;;50.00;41.50;;;;;13.96;56.00;100427.47;5111257;27;45798;-83
2022/04/25 08:31:30;;;;;;;;;51.50;42.50;;;;;14.27;55.76;100487.84;5111510;27;45726;-84
2022/04/25 08:33:56;;;;;;;;;47.50;41.00;;;;;13.94;55.32;100436.28;5110820;27;45572;-84
2022/04/25 08:36:22;;;;;;;;;52.75;45.00;;;;;14.26;55.70;100493.13;5092977;27;45908;-85
2022/04/25 08:38:48;;;;;;;;;53.50;45.00;;;;;14.43;55.71;100523.34;5091966;27;47167;-83
2022/04/25 08:41:16;;;;;;;;;51.75;43.25;;;;;13.58;55.49;100377.53;5092066;27;45504;-84
2022/04/25 08:43:43;;;;;;;;;58.50;47.00;;;;;14.53;55.58;100548.19;5110818;27;45378;-83
2022/04/25 08:46:10;;;;;;;;;53.25;42.50;;;;;14.00;55.81;100434.59;5092472;27;45607;-83
2022/04/25 08:48:37;;;;;;;;;55.25;44.50;;;;;14.46;55.66;100499.59;5110734;27;46402;-83
2022/04/25 08:51:04;;;;;;;;;52.75;43.75;;;;;14.45;55.68;100496.06;5092405;27;45494;-84
2022/04/25 08:53:32;;;;;;;;;52.00;42.25;;;;;14.49;55.45;100481.19;5092384;27;45347;-84
2022/04/25 08:56:02;;;;;;;;;52.75;44.25;;;;;14.83;55.64;100511.63;5091492;27;45727;-83
2022/04/25 08:58:28;;;;;;;;;55.50;45.75;;;;;15.04;54.91;100532.19;5110936;27;45462;-83
2022/04/25 09:00:54;;;;;;;;;50.25;42.25;;;;;15.16;55.12;100539.41;5110157;27;45367;-83
2022/04/25 09:03:19;;;;;;;;;55.00;45.25;;;;;14.94;55.08;100480.03;5110899;27;45467;-83
2022/04/25 09:05:46;;;;;;;;;54.75;44.50;;;;;14.70;54.08;100423.28;5091914;27;45309;-83
2022/04/25 09:08:12;;;;;;;;;54.75;45.75;;;;;15.02;54.37;100456.28;5091323;27;46637;-83
2022/04/25 09:10:40;;;;;;;;;54.00;45.00;;;;;15.14;54.53;100490.84;5091649;27;45456;-83
2022/04/25 09:13:06;;;;;;;;;54.25;45.00;;;;;15.16;53.88;100486.44;5110539;27;45520;-84
2022/04/25 09:15:32;;;;;;;;;54.00;44.75;;;;;14.88;53.81;100437.63;5110572;27;45540;-83
2022/04/25 09:17:59;;;;;;;;;52.00;43.75;;;;;15.16;54.66;100471.44;5074005;27;46884;-84
2022/04/25 09:20:26;;;;;;;;;53.75;44.50;;;;;15.00;53.96;100435.09;5091854;27;45462;-84
2022/04/25 09:22:52;;;;;;;;;52.50;45.00;;;;;15.31;53.23;100502.50;5110067;27;45456;-83
2022/04/25 09:25:19;;;;;;;;;57.25;45.50;;;;;15.37;53.73;100526.44;5091909;27;45436;-83
2022/04/25 09:27:47;;;;;;;;;52.00;43.25;;;;;15.47;53.71;100541.56;5091513;27;46994;-83
2022/04/25 09:30:20;;;;;;;;;54.00;43.75;;;;;15.13;53.64;100492.63;5091957;27;45876;-83
2022/04/25 09:32:47;;;;;;;;;52.25;44.25;;;;;15.25;53.83;100523.63;5091063;27;45477;-84
2022/04/25 09:35:28;;;;;;;;;48.75;40.75;;;;;15.38;54.12;100545.84;5091852;27;45844;-83
2022/04/25 09:37:55;;;;;;;;;52.00;42.25;;;;;14.76;54.27;100448.91;5090967;27;47941;-84
2022/04/25 09:40:23;;;;;;;;;50.00;41.25;;;;;14.70;53.70;100444.44;5091666;27;45820;-84
2022/04/25 09:43:11;;;;;;;;;54.00;45.00;;;;;14.96;53.94;100487.09;5091521;27;45644;-82
2022/04/25 09:45:40;;;;;;;;;52.25;43.50;;;;;15.26;54.00;100546.59;5091681;27;45545;-83
2022/04/25 09:48:13;;;;;;;;;51.75;44.50;;;;;15.11;53.51;100518.16;5090946;27;48181;-83
2022/04/25 09:50:39;;;;;;;;;48.50;41.00;;;;;15.13;53.55;100524.38;5110135;27;45764;-83
2022/04/25 09:53:06;;;;;;;;;48.50;41.25;;;;;15.25;54.01;100534.22;5090857;27;45415;-84
2022/04/25 09:55:35;;;;;;;;;51.25;42.75;;;;;15.30;53.46;100521.03;5091361;27;45506;-83
2022/04/25 09:58:18;;;;;;;;;47.75;40.50;;;;;15.09;53.27;100468.72;5090940;27;48262;-83
2022/04/25 10:00:44;;;;;;;;;44.00;38.25;;;;;14.98;53.12;100435.97;5091368;27;45993;-83
2022/04/25 10:03:10;;;;;;;;;49.00;40.50;;;;;15.62;53.04;100524.94;5110022;27;45500;-84
2022/04/25 10:05:40;;;;;;;;;42.25;36.50;;;;;15.71;51.91;100510.91;5091361;27;45382;-83
2022/04/25 10:08:07;;;;;;;;;38.00;33.75;;;;;15.58;52.37;100483.41;5090777;27;48102;-84
2022/04/25 10:10:33;;;;;;;;;48.75;41.50;;;;;16.15;52.68;100545.78;5109515;27;45504;-84
2022/04/25 10:13:03;;;;;;;;;42.25;36.75;;;;;16.42;51.66;100570.78;5109456;27;45667;-84
2022/04/25 10:15:28;;;;;;;;;48.50;40.25;;;;;16.47;51.19;100572.59;5091345;27;45602;-84
2022/04/25 10:17:55;;;;;;;;;45.75;39.00;;;;;16.08;51.14;100498.00;5109103;27;46108;-83
2022/04/25 10:20:21;;;;;;;;;49.00;39.00;;;;;16.38;50.61;100534.47;5112096;27;45845;-83
2022/04/25 10:22:46;;;;;;;;;49.75;42.00;;;;;16.45;50.60;100549.56;5093894;27;45466;-84
2022/04/25 10:25:12;;;;;;;;;50.00;41.50;;;;;16.58;51.61;100542.59;5112924;27;45622;-83
2022/04/25 10:27:43;;;;;;;;;47.75;39.25;;;;;16.58;50.45;100538.16;5093807;27;47046;-83
2022/04/25 10:30:14;;;;;;;;;49.50;42.00;;;;;16.13;50.14;100468.00;5094573;27;45695;-84
2022/04/25 10:32:40;;;;;;;;;50.25;42.25;;;;;16.41;50.84;100513.31;5093988;27;45383;-84
2022/04/25 10:35:11;;;;;;;;;51.25;42.25;;;;;16.44;50.54;100542.47;5113189;27;45616;-84
2022/04/25 10:37:43;;;;;;;;;44.25;37.75;;;;;16.39;50.57;100546.88;5094022;27;46112;-84
2022/04/25 10:40:12;;;;;;;;;44.00;36.25;;;;;16.31;50.91;100543.28;5112791;27;45931;-83
2022/04/25 10:45:58;;;;;;;;;45.50;37.50;;;;;16.50;50.52;100545.16;5112280;27;45617;-84
2022/04/25 10:48:24;;;;;;;;;47.00;40.00;;;;;16.47;50.41;100542.50;5094498;27;47300;-83
2022/04/25 10:51:13;;;;;;;;;44.75;38.50;;;;;16.31;50.20;100519.41;5094068;27;45526;-84
2022/04/25 10:54:01;;;;;;;;;46.50;40.00;;;;;16.70;50.57;100582.50;5093513;27;45342;-83
2022/04/25 10:56:28;;;;;;;;;46.00;38.50;;;;;16.55;50.45;100558.47;5080317;27;45487;-84
2022/04/25 10:59:25;;;;;;;;;44.50;37.00;;;;;16.80;50.03;100579.06;5091554;27;45538;-83
2022/04/25 11:01:52;;;;;;;;;39.75;35.50;;;;;16.67;50.29;100537.34;5091540;27;45491;-83
2022/04/25 11:04:19;;;;;;;;;44.75;37.00;;;;;17.18;48.95;100589.88;5092243;27;45438;-83
2022/04/25 11:06:46;;;;;;;;;34.75;33.00;;;;;16.87;48.73;100525.09;5073211;27;45574;-83
2022/04/25 11:09:40;;;;;;;;;38.75;33.00;;;;;17.23;47.95;100574.84;5089278;27;47810;-84
2022/04/25 11:12:06;;;;;;;;;35.25;32.00;;;;;16.90;47.11;100509.22;5073344;27;46103;-83
2022/04/25 11:14:32;;;;;;;;;33.50;31.75;;;;;16.83;47.81;100491.47;5073586;27;45737;-83
2022/04/25 11:17:11;;;;;;;;;33.75;31.50;;;;;17.56;47.09;100583.84;5091000;27;45939;-84
2022/04/25 11:19:47;;;;;;;;;42.00;36.25;;;;;17.75;47.88;100569.75;5091440;27;46412;-83
2022/04/25 11:22:29;;;;;;;;;38.75;33.50;;;;;18.07;46.78;100586.66;5091680;27;45889;-84
2022/04/25 11:24:55;;;;;;;;;35.75;32.25;;;;;18.02;46.33;100576.00;5091114;27;45422;-83
2022/04/25 11:27:21;;;;;;;;;35.00;32.25;;;;;17.55;46.52;100507.66;5073516;27;45678;-83
2022/04/25 11:30:14;;;;;;;;;38.75;32.75;;;;;17.85;46.92;100569.78;5091314;27;46102;-83
2022/04/25 11:32:42;;;;;;;;;40.00;35.00;;;;;17.44;46.21;100528.91;5091356;27;45496;-83
2022/04/25 11:35:08;;;;;;;;;45.75;37.75;;;;;17.28;47.38;100519.09;5091335;27;45336;-84
2022/04/25 11:37:36;;;;;;;;;38.25;34.00;;;;;17.43;46.77;100537.72;5090974;27;45466;-84